sensor_id;sensor_type;location;lat;lon;timestamp;temperature;humidity
55777;DHT22;54079;44.540;18.784;2024-02-26T00:01:43;10.50;99.90
55777;DHT22;54079;44.540;18.784;2024-02-26T00:04:10;10.80;99.90
55777;DHT22;54079;44.540;18.784;2024-02-26T00:06:36;11.00;99.90
55777;DHT22;54079;44.540;18.784;2024-02-26T00:09:02;11.00;99.90
55777;DHT22;54079;44.540;18.784;2024-02-26T00:11:31;10.90;99.90
55777;DHT22;54079;44.540;18.784;2024-02-26T00:13:57;10.90;99.90
55777;DHT22;54079;44.540;18.784;2024-02-26T00:16:24;10.90;99.90
55777;DHT22;54079;44.540;18.784;2024-02-26T00:18:50;11.00;99.90
55777;DHT22;54079;44.540;18.784;2024-02-26T00:21:16;11.10;99.90
55777;DHT22;54079;44.540;18.784;2024-02-26T00:23:41;11.20;99.90
55777;DHT22;54079;44.540;18.784;2024-02-26T00:26:07;11.30;99.90
55777;DHT22;54079;44.540;18.784;2024-02-26T00:28:34;11.30;99.90
55777;DHT22;54079;44.540;18.784;2024-02-26T00:30:59;11.10;99.90
55777;DHT22;54079;44.540;18.784;2024-02-26T00:33:25;11.20;99.90
55777;DHT22;54079;44.540;18.784;2024-02-26T00:35:51;11.30;99.90
55777;DHT22;54079;44.540;18.784;2024-02-26T00:38:17;11.40;99.90
55777;DHT22;54079;44.540;18.784;2024-02-26T00:40:43;11.40;99.90
55777;DHT22;54079;44.540;18.784;2024-02-26T00:43:09;11.10;99.90
55777;DHT22;54079;44.540;18.784;2024-02-26T00:45:35;11.30;99.90
55777;DHT22;54079;44.540;18.784;2024-02-26T00:48:01;11.40;99.90
55777;DHT22;54079;44.540;18.784;2024-02-26T00:50:31;11.40;99.90
55777;DHT22;54079;44.540;18.784;2024-02-26T00:52:57;11.40;99.90
55777;DHT22;54079;44.540;18.784;2024-02-26T00:55:23;11.50;99.90
55777;DHT22;54079;44.540;18.784;2024-02-26T00:57:49;11.40;99.90
55777;DHT22;54079;44.540;18.784;2024-02-26T01:00:15;11.20;99.90
55777;DHT22;54079;44.540;18.784;2024-02-26T01:02:41;10.50;99.90
55777;DHT22;54079;44.540;18.784;2024-02-26T01:05:08;10.50;99.90
55777;DHT22;54079;44.540;18.784;2024-02-26T01:07:37;10.60;99.90
55777;DHT22;54079;44.540;18.784;2024-02-26T01:10:05;10.70;99.90
55777;DHT22;54079;44.540;18.784;2024-02-26T01:12:35;10.70;99.90
55777;DHT22;54079;44.540;18.784;2024-02-26T01:15:02;10.70;99.90
55777;DHT22;54079;44.540;18.784;2024-02-26T01:17:29;10.50;99.90
55777;DHT22;54079;44.540;18.784;2024-02-26T01:19:55;10.00;99.90
55777;DHT22;54079;44.540;18.784;2024-02-26T01:22:21;9.80;99.90
55777;DHT22;54079;44.540;18.784;2024-02-26T01:24:47;9.80;99.90
55777;DHT22;54079;44.540;18.784;2024-02-26T01:27:13;10.20;99.90
55777;DHT22;54079;44.540;18.784;2024-02-26T01:29:42;10.40;99.90
55777;DHT22;54079;44.540;18.784;2024-02-26T01:32:08;10.60;99.90
55777;DHT22;54079;44.540;18.784;2024-02-26T01:34:34;10.70;99.90
55777;DHT22;54079;44.540;18.784;2024-02-26T01:37:02;10.60;99.90
55777;DHT22;54079;44.540;18.784;2024-02-26T01:39:28;10.60;99.90
55777;DHT22;54079;44.540;18.784;2024-02-26T01:41:56;10.20;99.90
55777;DHT22;54079;44.540;18.784;2024-02-26T01:44:22;10.40;99.90
55777;DHT22;54079;44.540;18.784;2024-02-26T01:46:48;10.40;99.90
55777;DHT22;54079;44.540;18.784;2024-02-26T01:49:15;10.30;99.90
55777;DHT22;54079;44.540;18.784;2024-02-26T01:51:42;10.50;99.90
55777;DHT22;54079;44.540;18.784;2024-02-26T01:54:09;10.50;99.90
55777;DHT22;54079;44.540;18.784;2024-02-26T01:56:36;10.70;99.90
55777;DHT22;54079;44.540;18.784;2024-02-26T01:59:04;10.30;99.90
55777;DHT22;54079;44.540;18.784;2024-02-26T02:01:32;9.90;99.90
55777;DHT22;54079;44.540;18.784;2024-02-26T02:04:00;10.20;99.90
55777;DHT22;54079;44.540;18.784;2024-02-26T02:06:26;10.30;99.90
55777;DHT22;54079;44.540;18.784;2024-02-26T02:08:55;10.50;99.90
55777;DHT22;54079;44.540;18.784;2024-02-26T02:11:21;10.60;99.90
55777;DHT22;54079;44.540;18.784;2024-02-26T02:13:47;10.60;99.90
55777;DHT22;54079;44.540;18.784;2024-02-26T02:16:13;10.50;99.90
55777;DHT22;54079;44.540;18.784;2024-02-26T02:18:39;10.50;99.90
55777;DHT22;54079;44.540;18.784;2024-02-26T02:21:05;10.60;99.90
55777;DHT22;54079;44.540;18.784;2024-02-26T02:23:31;10.70;99.90
55777;DHT22;54079;44.540;18.784;2024-02-26T02:25:59;10.70;99.90
55777;DHT22;54079;44.540;18.784;2024-02-26T02:28:26;10.80;99.90
55777;DHT22;54079;44.540;18.784;2024-02-26T02:30:53;10.90;99.90
55777;DHT22;54079;44.540;18.784;2024-02-26T02:33:20;10.80;99.90
55777;DHT22;54079;44.540;18.784;2024-02-26T02:35:46;10.70;99.90
55777;DHT22;54079;44.540;18.784;2024-02-26T02:38:12;10.70;99.90
55777;DHT22;54079;44.540;18.784;2024-02-26T02:40:38;10.40;99.90
55777;DHT22;54079;44.540;18.784;2024-02-26T02:43:04;10.30;99.90
55777;DHT22;54079;44.540;18.784;2024-02-26T02:45:30;10.30;99.90
55777;DHT22;54079;44.540;18.784;2024-02-26T02:47:56;10.30;99.90
55777;DHT22;54079;44.540;18.784;2024-02-26T02:50:22;10.10;99.90
55777;DHT22;54079;44.540;18.784;2024-02-26T02:52:48;10.20;99.90
55777;DHT22;54079;44.540;18.784;2024-02-26T02:55:16;10.40;99.90
55777;DHT22;54079;44.540;18.784;2024-02-26T02:57:42;10.20;99.90
55777;DHT22;54079;44.540;18.784;2024-02-26T03:00:11;10.30;99.90
55777;DHT22;54079;44.540;18.784;2024-02-26T03:02:37;10.50;99.90
55777;DHT22;54079;44.540;18.784;2024-02-26T03:05:04;10.60;99.90
55777;DHT22;54079;44.540;18.784;2024-02-26T03:07:30;10.60;99.90
55777;DHT22;54079;44.540;18.784;2024-02-26T03:09:56;10.40;99.90
55777;DHT22;54079;44.540;18.784;2024-02-26T03:12:22;10.50;99.90
55777;DHT22;54079;44.540;18.784;2024-02-26T03:14:49;10.50;99.90
55777;DHT22;54079;44.540;18.784;2024-02-26T03:17:15;10.50;99.90
55777;DHT22;54079;44.540;18.784;2024-02-26T03:19:41;10.40;99.90
55777;DHT22;54079;44.540;18.784;2024-02-26T03:22:07;10.40;99.90
55777;DHT22;54079;44.540;18.784;2024-02-26T03:24:33;10.10;99.90
55777;DHT22;54079;44.540;18.784;2024-02-26T03:26:59;10.30;99.90
55777;DHT22;54079;44.540;18.784;2024-02-26T03:29:25;10.50;99.90
55777;DHT22;54079;44.540;18.784;2024-02-26T03:31:51;10.50;99.90
55777;DHT22;54079;44.540;18.784;2024-02-26T03:34:17;10.20;99.90
55777;DHT22;54079;44.540;18.784;2024-02-26T03:36:44;10.00;99.90
55777;DHT22;54079;44.540;18.784;2024-02-26T03:39:10;10.10;99.90
55777;DHT22;54079;44.540;18.784;2024-02-26T03:41:37;10.30;99.90
55777;DHT22;54079;44.540;18.784;2024-02-26T03:44:03;10.20;99.90
55777;DHT22;54079;44.540;18.784;2024-02-26T03:46:28;10.40;99.90
55777;DHT22;54079;44.540;18.784;2024-02-26T03:48:55;10.40;99.90
55777;DHT22;54079;44.540;18.784;2024-02-26T03:51:21;10.60;99.90
55777;DHT22;54079;44.540;18.784;2024-02-26T03:53:46;10.60;99.90
55777;DHT22;54079;44.540;18.784;2024-02-26T03:56:12;10.60;99.90
55777;DHT22;54079;44.540;18.784;2024-02-26T03:58:41;10.50;99.90
55777;DHT22;54079;44.540;18.784;2024-02-26T04:01:08;10.40;99.90
55777;DHT22;54079;44.540;18.784;2024-02-26T04:03:35;10.10;99.90
55777;DHT22;54079;44.540;18.784;2024-02-26T04:06:02;10.10;99.90
55777;DHT22;54079;44.540;18.784;2024-02-26T04:08:28;10.30;99.90
55777;DHT22;54079;44.540;18.784;2024-02-26T04:10:54;10.10;99.90
55777;DHT22;54079;44.540;18.784;2024-02-26T04:13:20;10.10;99.90
55777;DHT22;54079;44.540;18.784;2024-02-26T04:15:46;9.80;99.90
55777;DHT22;54079;44.540;18.784;2024-02-26T04:18:12;9.80;99.90
55777;DHT22;54079;44.540;18.784;2024-02-26T04:20:39;9.90;99.90
55777;DHT22;54079;44.540;18.784;2024-02-26T04:23:08;10.10;99.90
55777;DHT22;54079;44.540;18.784;2024-02-26T04:25:34;10.10;99.90
55777;DHT22;54079;44.540;18.784;2024-02-26T04:27:59;10.10;99.90
55777;DHT22;54079;44.540;18.784;2024-02-26T04:30:26;10.00;99.90
55777;DHT22;54079;44.540;18.784;2024-02-26T04:32:52;10.00;99.90
55777;DHT22;54079;44.540;18.784;2024-02-26T04:35:18;10.00;99.90
55777;DHT22;54079;44.540;18.784;2024-02-26T04:37:44;10.00;99.90
55777;DHT22;54079;44.540;18.784;2024-02-26T04:40:10;9.50;99.90
55777;DHT22;54079;44.540;18.784;2024-02-26T04:42:36;9.60;99.90
55777;DHT22;54079;44.540;18.784;2024-02-26T04:45:02;9.50;99.90
55777;DHT22;54079;44.540;18.784;2024-02-26T04:47:28;9.60;99.90
55777;DHT22;54079;44.540;18.784;2024-02-26T04:49:55;9.70;99.90
55777;DHT22;54079;44.540;18.784;2024-02-26T04:52:21;9.70;99.90
55777;DHT22;54079;44.540;18.784;2024-02-26T04:54:47;9.70;99.90
55777;DHT22;54079;44.540;18.784;2024-02-26T04:57:13;9.60;99.90
55777;DHT22;54079;44.540;18.784;2024-02-26T04:59:39;9.80;99.90
55777;DHT22;54079;44.540;18.784;2024-02-26T05:02:07;9.90;99.90
55777;DHT22;54079;44.540;18.784;2024-02-26T05:04:33;9.80;99.90
55777;DHT22;54079;44.540;18.784;2024-02-26T05:06:59;9.70;99.90
55777;DHT22;54079;44.540;18.784;2024-02-26T05:09:26;9.50;99.90
55777;DHT22;54079;44.540;18.784;2024-02-26T05:11:51;9.50;99.90
55777;DHT22;54079;44.540;18.784;2024-02-26T05:14:18;9.70;99.90
55777;DHT22;54079;44.540;18.784;2024-02-26T05:16:44;9.70;99.90
55777;DHT22;54079;44.540;18.784;2024-02-26T05:19:10;9.40;99.90
55777;DHT22;54079;44.540;18.784;2024-02-26T05:21:36;9.30;99.90
55777;DHT22;54079;44.540;18.784;2024-02-26T05:24:02;9.30;99.90
55777;DHT22;54079;44.540;18.784;2024-02-26T05:26:28;9.20;99.90
55777;DHT22;54079;44.540;18.784;2024-02-26T05:28:54;9.30;99.90
55777;DHT22;54079;44.540;18.784;2024-02-26T05:31:25;9.30;99.90
55777;DHT22;54079;44.540;18.784;2024-02-26T05:33:51;9.10;99.90
55777;DHT22;54079;44.540;18.784;2024-02-26T05:36:22;9.00;99.90
55777;DHT22;54079;44.540;18.784;2024-02-26T05:38:48;9.10;99.90
55777;DHT22;54079;44.540;18.784;2024-02-26T05:41:18;8.90;99.90
55777;DHT22;54079;44.540;18.784;2024-02-26T05:43:51;9.10;99.90
55777;DHT22;54079;44.540;18.784;2024-02-26T05:46:20;9.20;99.90
55777;DHT22;54079;44.540;18.784;2024-02-26T05:48:48;9.40;99.90
55777;DHT22;54079;44.540;18.784;2024-02-26T05:51:14;9.20;99.90
55777;DHT22;54079;44.540;18.784;2024-02-26T05:53:41;9.40;99.90
55777;DHT22;54079;44.540;18.784;2024-02-26T05:56:07;9.40;99.90
55777;DHT22;54079;44.540;18.784;2024-02-26T05:58:33;9.50;99.90
55777;DHT22;54079;44.540;18.784;2024-02-26T06:00:59;9.60;99.90
55777;DHT22;54079;44.540;18.784;2024-02-26T06:03:26;9.70;99.90
55777;DHT22;54079;44.540;18.784;2024-02-26T06:05:52;9.60;99.90
55777;DHT22;54079;44.540;18.784;2024-02-26T06:08:18;9.10;99.90
55777;DHT22;54079;44.540;18.784;2024-02-26T06:10:44;9.30;99.90
55777;DHT22;54079;44.540;18.784;2024-02-26T06:13:11;9.50;99.90
55777;DHT22;54079;44.540;18.784;2024-02-26T06:15:37;9.70;99.90
55777;DHT22;54079;44.540;18.784;2024-02-26T06:18:03;9.50;99.90
55777;DHT22;54079;44.540;18.784;2024-02-26T06:20:29;9.30;99.90
55777;DHT22;54079;44.540;18.784;2024-02-26T06:22:54;9.80;99.90
55777;DHT22;54079;44.540;18.784;2024-02-26T06:25:20;9.90;99.90
55777;DHT22;54079;44.540;18.784;2024-02-26T06:27:46;10.00;99.90
55777;DHT22;54079;44.540;18.784;2024-02-26T06:30:12;9.80;99.90
55777;DHT22;54079;44.540;18.784;2024-02-26T06:32:38;9.90;99.90
55777;DHT22;54079;44.540;18.784;2024-02-26T06:35:05;10.10;99.90
55777;DHT22;54079;44.540;18.784;2024-02-26T06:37:33;10.00;99.90
55777;DHT22;54079;44.540;18.784;2024-02-26T06:40:00;10.50;99.90
55777;DHT22;54079;44.540;18.784;2024-02-26T06:42:29;10.60;99.90
55777;DHT22;54079;44.540;18.784;2024-02-26T06:44:56;10.90;99.90
55777;DHT22;54079;44.540;18.784;2024-02-26T06:47:22;11.10;99.90
55777;DHT22;54079;44.540;18.784;2024-02-26T06:49:48;11.40;99.90
55777;DHT22;54079;44.540;18.784;2024-02-26T06:52:14;11.40;99.90
55777;DHT22;54079;44.540;18.784;2024-02-26T06:54:40;11.70;99.90
55777;DHT22;54079;44.540;18.784;2024-02-26T06:57:06;11.90;99.90
55777;DHT22;54079;44.540;18.784;2024-02-26T06:59:32;11.50;99.90
55777;DHT22;54079;44.540;18.784;2024-02-26T07:01:58;11.00;99.90
55777;DHT22;54079;44.540;18.784;2024-02-26T07:04:24;12.00;99.90
55777;DHT22;54079;44.540;18.784;2024-02-26T07:06:49;12.50;99.90
55777;DHT22;54079;44.540;18.784;2024-02-26T07:09:15;13.30;99.90
55777;DHT22;54079;44.540;18.784;2024-02-26T07:11:41;16.70;99.90
55777;DHT22;54079;44.540;18.784;2024-02-26T07:14:12;20.10;97.90
55777;DHT22;54079;44.540;18.784;2024-02-26T07:16:38;23.00;92.70
55777;DHT22;54079;44.540;18.784;2024-02-26T07:19:04;22.10;90.60
55777;DHT22;54079;44.540;18.784;2024-02-26T07:21:30;20.40;91.20
55777;DHT22;54079;44.540;18.784;2024-02-26T07:23:56;18.90;92.90
55777;DHT22;54079;44.540;18.784;2024-02-26T07:26:23;18.20;94.00
55777;DHT22;54079;44.540;18.784;2024-02-26T07:28:51;17.60;95.50
55777;DHT22;54079;44.540;18.784;2024-02-26T07:31:18;19.30;94.00
55777;DHT22;54079;44.540;18.784;2024-02-26T07:33:44;18.90;94.10
55777;DHT22;54079;44.540;18.784;2024-02-26T07:36:10;23.40;91.10
55777;DHT22;54079;44.540;18.784;2024-02-26T07:38:36;26.50;84.50
55777;DHT22;54079;44.540;18.784;2024-02-26T07:41:03;28.20;79.30
55777;DHT22;54079;44.540;18.784;2024-02-26T07:43:29;26.30;77.70
55777;DHT22;54079;44.540;18.784;2024-02-26T07:45:55;24.00;81.00
55777;DHT22;54079;44.540;18.784;2024-02-26T07:48:21;21.60;82.60
55777;DHT22;54079;44.540;18.784;2024-02-26T07:50:47;19.20;90.30
55777;DHT22;54079;44.540;18.784;2024-02-26T07:53:13;18.70;92.50
55777;DHT22;54079;44.540;18.784;2024-02-26T07:55:39;18.40;93.60
55777;DHT22;54079;44.540;18.784;2024-02-26T07:58:05;18.10;95.30
55777;DHT22;54079;44.540;18.784;2024-02-26T08:00:31;18.30;95.00
55777;DHT22;54079;44.540;18.784;2024-02-26T08:02:57;18.20;94.60
55777;DHT22;54079;44.540;18.784;2024-02-26T08:05:24;17.80;94.30
55777;DHT22;54079;44.540;18.784;2024-02-26T08:07:51;17.70;95.90
55777;DHT22;54079;44.540;18.784;2024-02-26T08:10:17;18.00;96.70
55777;DHT22;54079;44.540;18.784;2024-02-26T08:12:42;18.10;96.70
55777;DHT22;54079;44.540;18.784;2024-02-26T08:15:09;18.30;96.40
55777;DHT22;54079;44.540;18.784;2024-02-26T08:17:35;18.30;97.40
55777;DHT22;54079;44.540;18.784;2024-02-26T08:20:02;19.10;97.00
55777;DHT22;54079;44.540;18.784;2024-02-26T08:22:28;20.40;96.20
55777;DHT22;54079;44.540;18.784;2024-02-26T08:24:54;21.90;94.60
55777;DHT22;54079;44.540;18.784;2024-02-26T08:27:20;22.40;92.70
55777;DHT22;54079;44.540;18.784;2024-02-26T08:29:46;21.50;92.60
55777;DHT22;54079;44.540;18.784;2024-02-26T08:32:12;20.30;93.80
55777;DHT22;54079;44.540;18.784;2024-02-26T08:34:38;19.90;93.90
55777;DHT22;54079;44.540;18.784;2024-02-26T08:37:04;19.60;95.30
55777;DHT22;54079;44.540;18.784;2024-02-26T08:39:31;19.50;95.20
55777;DHT22;54079;44.540;18.784;2024-02-26T08:41:57;19.60;94.50
55777;DHT22;54079;44.540;18.784;2024-02-26T08:44:23;19.50;94.60
55777;DHT22;54079;44.540;18.784;2024-02-26T08:46:49;19.50;95.60
55777;DHT22;54079;44.540;18.784;2024-02-26T08:49:16;19.50;95.80
55777;DHT22;54079;44.540;18.784;2024-02-26T08:51:43;19.20;96.10
55777;DHT22;54079;44.540;18.784;2024-02-26T08:54:11;19.70;96.00
55777;DHT22;54079;44.540;18.784;2024-02-26T08:56:37;20.40;95.10
55777;DHT22;54079;44.540;18.784;2024-02-26T08:59:03;21.30;94.20
55777;DHT22;54079;44.540;18.784;2024-02-26T09:01:32;23.70;92.90
55777;DHT22;54079;44.540;18.784;2024-02-26T09:03:58;28.60;84.60
55777;DHT22;54079;44.540;18.784;2024-02-26T09:06:24;32.60;74.80
55777;DHT22;54079;44.540;18.784;2024-02-26T09:08:50;35.40;66.70
55777;DHT22;54079;44.540;18.784;2024-02-26T09:11:16;36.90;63.60
55777;DHT22;54079;44.540;18.784;2024-02-26T09:13:42;38.70;60.30
55777;DHT22;54079;44.540;18.784;2024-02-26T09:16:08;39.00;57.20
55777;DHT22;54079;44.540;18.784;2024-02-26T09:18:34;40.20;56.30
55777;DHT22;54079;44.540;18.784;2024-02-26T09:21:04;39.40;54.20
55777;DHT22;54079;44.540;18.784;2024-02-26T09:23:31;38.40;56.00
55777;DHT22;54079;44.540;18.784;2024-02-26T09:25:58;38.10;55.50
55777;DHT22;54079;44.540;18.784;2024-02-26T09:28:24;36.70;55.70
55777;DHT22;54079;44.540;18.784;2024-02-26T09:30:50;35.00;55.20
55777;DHT22;54079;44.540;18.784;2024-02-26T09:33:16;32.30;58.30
55777;DHT22;54079;44.540;18.784;2024-02-26T09:35:42;30.50;59.20
55777;DHT22;54079;44.540;18.784;2024-02-26T09:38:08;29.70;60.40
55777;DHT22;54079;44.540;18.784;2024-02-26T09:40:34;29.00;61.70
55777;DHT22;54079;44.540;18.784;2024-02-26T09:43:01;28.20;61.30
55777;DHT22;54079;44.540;18.784;2024-02-26T09:45:30;27.30;59.90
55777;DHT22;54079;44.540;18.784;2024-02-26T09:47:58;26.00;60.80
55777;DHT22;54079;44.540;18.784;2024-02-26T09:50:24;25.40;62.30
55777;DHT22;54079;44.540;18.784;2024-02-26T09:52:51;24.30;61.20
55777;DHT22;54079;44.540;18.784;2024-02-26T09:55:19;23.70;61.60
55777;DHT22;54079;44.540;18.784;2024-02-26T09:57:46;23.50;64.40
55777;DHT22;54079;44.540;18.784;2024-02-26T10:00:17;22.50;61.90
55777;DHT22;54079;44.540;18.784;2024-02-26T10:02:46;22.00;62.50
55777;DHT22;54079;44.540;18.784;2024-02-26T10:05:17;21.30;63.90
55777;DHT22;54079;44.540;18.784;2024-02-26T10:07:47;21.30;65.30
55777;DHT22;54079;44.540;18.784;2024-02-26T10:10:17;21.30;68.00
55777;DHT22;54079;44.540;18.784;2024-02-26T10:12:43;20.90;67.90
55777;DHT22;54079;44.540;18.784;2024-02-26T10:15:09;20.80;67.60
55777;DHT22;54079;44.540;18.784;2024-02-26T10:17:35;20.90;66.20
55777;DHT22;54079;44.540;18.784;2024-02-26T10:20:14;20.20;65.30
55777;DHT22;54079;44.540;18.784;2024-02-26T10:22:41;19.80;65.30
55777;DHT22;54079;44.540;18.784;2024-02-26T10:25:08;19.90;66.20
55777;DHT22;54079;44.540;18.784;2024-02-26T10:27:35;19.80;66.90
55777;DHT22;54079;44.540;18.784;2024-02-26T10:30:26;20.10;68.80
55777;DHT22;54079;44.540;18.784;2024-02-26T10:32:52;20.00;69.40
55777;DHT22;54079;44.540;18.784;2024-02-26T10:35:19;20.40;69.00
55777;DHT22;54079;44.540;18.784;2024-02-26T10:37:48;20.30;65.70
55777;DHT22;54079;44.540;18.784;2024-02-26T10:40:15;20.30;68.60
55777;DHT22;54079;44.540;18.784;2024-02-26T10:42:42;20.50;68.10
55777;DHT22;54079;44.540;18.784;2024-02-26T10:45:09;20.10;66.00
55777;DHT22;54079;44.540;18.784;2024-02-26T10:47:40;20.10;66.00
55777;DHT22;54079;44.540;18.784;2024-02-26T10:50:08;20.30;68.40
55777;DHT22;54079;44.540;18.784;2024-02-26T10:52:35;20.40;67.00
55777;DHT22;54079;44.540;18.784;2024-02-26T10:55:03;20.50;68.20
55777;DHT22;54079;44.540;18.784;2024-02-26T10:57:33;20.60;66.80
55777;DHT22;54079;44.540;18.784;2024-02-26T11:00:02;20.80;66.40
55777;DHT22;54079;44.540;18.784;2024-02-26T11:02:33;20.90;68.00
55777;DHT22;54079;44.540;18.784;2024-02-26T11:05:03;21.00;66.80
55777;DHT22;54079;44.540;18.784;2024-02-26T11:07:35;20.90;70.50
55777;DHT22;54079;44.540;18.784;2024-02-26T11:10:04;20.30;66.60
55777;DHT22;54079;44.540;18.784;2024-02-26T11:12:32;20.50;66.50
55777;DHT22;54079;44.540;18.784;2024-02-26T11:15:01;20.60;65.60
55777;DHT22;54079;44.540;18.784;2024-02-26T11:17:28;20.50;68.40
55777;DHT22;54079;44.540;18.784;2024-02-26T11:19:59;20.70;67.60
55777;DHT22;54079;44.540;18.784;2024-02-26T11:22:26;20.80;68.80
55777;DHT22;54079;44.540;18.784;2024-02-26T11:24:56;21.00;68.30
55777;DHT22;54079;44.540;18.784;2024-02-26T11:27:26;21.20;67.10
55777;DHT22;54079;44.540;18.784;2024-02-26T11:29:56;21.00;66.80
55777;DHT22;54079;44.540;18.784;2024-02-26T11:32:32;20.60;69.10
55777;DHT22;54079;44.540;18.784;2024-02-26T11:35:01;20.80;69.50
55777;DHT22;54079;44.540;18.784;2024-02-26T11:37:27;21.10;67.90
55777;DHT22;54079;44.540;18.784;2024-02-26T11:39:53;20.70;65.60
55777;DHT22;54079;44.540;18.784;2024-02-26T11:42:24;21.00;67.80
55777;DHT22;54079;44.540;18.784;2024-02-26T11:44:54;20.50;66.40
55777;DHT22;54079;44.540;18.784;2024-02-26T11:47:22;20.40;66.20
55777;DHT22;54079;44.540;18.784;2024-02-26T11:49:49;20.60;67.30
55777;DHT22;54079;44.540;18.784;2024-02-26T11:52:16;20.50;66.70
55777;DHT22;54079;44.540;18.784;2024-02-26T11:54:49;20.70;68.80
55777;DHT22;54079;44.540;18.784;2024-02-26T11:57:51;20.90;68.30
55777;DHT22;54079;44.540;18.784;2024-02-26T12:00:17;21.10;69.40
55777;DHT22;54079;44.540;18.784;2024-02-26T12:02:52;21.30;68.50
55777;DHT22;54079;44.540;18.784;2024-02-26T12:05:27;21.50;68.30
55777;DHT22;54079;44.540;18.784;2024-02-26T12:08:03;21.80;68.50
55777;DHT22;54079;44.540;18.784;2024-02-26T12:10:41;22.00;66.30
55777;DHT22;54079;44.540;18.784;2024-02-26T12:13:15;22.20;66.20
55777;DHT22;54079;44.540;18.784;2024-02-26T12:15:44;22.40;66.30
55777;DHT22;54079;44.540;18.784;2024-02-26T12:18:19;22.50;67.70
55777;DHT22;54079;44.540;18.784;2024-02-26T12:20:47;22.60;64.80
55777;DHT22;54079;44.540;18.784;2024-02-26T12:23:16;22.40;62.30
55777;DHT22;54079;44.540;18.784;2024-02-26T12:25:45;22.40;62.90
55777;DHT22;54079;44.540;18.784;2024-02-26T12:28:14;22.30;62.40
55777;DHT22;54079;44.540;18.784;2024-02-26T12:30:40;22.70;64.70
55777;DHT22;54079;44.540;18.784;2024-02-26T12:33:06;23.10;66.00
55777;DHT22;54079;44.540;18.784;2024-02-26T12:35:35;23.30;64.40
55777;DHT22;54079;44.540;18.784;2024-02-26T12:38:01;23.60;64.10
55777;DHT22;54079;44.540;18.784;2024-02-26T12:40:29;23.10;61.40
55777;DHT22;54079;44.540;18.784;2024-02-26T12:42:56;22.80;65.20
55777;DHT22;54079;44.540;18.784;2024-02-26T12:45:23;22.90;63.60
55777;DHT22;54079;44.540;18.784;2024-02-26T12:47:51;22.60;62.80
55777;DHT22;54079;44.540;18.784;2024-02-26T12:50:17;22.40;64.40
55777;DHT22;54079;44.540;18.784;2024-02-26T12:52:45;22.60;65.80
55777;DHT22;54079;44.540;18.784;2024-02-26T12:55:15;22.90;65.20
55777;DHT22;54079;44.540;18.784;2024-02-26T12:57:42;23.30;64.20
55777;DHT22;54079;44.540;18.784;2024-02-26T13:00:16;23.50;63.20
55777;DHT22;54079;44.540;18.784;2024-02-26T13:02:43;23.50;64.20
55777;DHT22;54079;44.540;18.784;2024-02-26T13:05:12;23.70;62.90
55777;DHT22;54079;44.540;18.784;2024-02-26T13:07:43;23.70;63.80
55777;DHT22;54079;44.540;18.784;2024-02-26T13:10:09;23.90;64.80
55777;DHT22;54079;44.540;18.784;2024-02-26T13:12:44;23.60;64.00
55777;DHT22;54079;44.540;18.784;2024-02-26T13:15:15;24.00;63.50
55777;DHT22;54079;44.540;18.784;2024-02-26T13:17:42;24.30;65.90
55777;DHT22;54079;44.540;18.784;2024-02-26T13:20:09;23.90;60.70
55777;DHT22;54079;44.540;18.784;2024-02-26T13:22:38;23.60;62.40
55777;DHT22;54079;44.540;18.784;2024-02-26T13:25:05;23.70;62.30
55777;DHT22;54079;44.540;18.784;2024-02-26T13:27:33;23.60;63.80
55777;DHT22;54079;44.540;18.784;2024-02-26T13:30:04;23.40;64.20
55777;DHT22;54079;44.540;18.784;2024-02-26T13:32:36;23.50;64.40
55777;DHT22;54079;44.540;18.784;2024-02-26T13:35:11;23.50;64.30
55777;DHT22;54079;44.540;18.784;2024-02-26T13:37:39;23.20;63.80
55777;DHT22;54079;44.540;18.784;2024-02-26T13:40:06;23.10;64.80
55777;DHT22;54079;44.540;18.784;2024-02-26T13:42:34;23.20;65.00
55777;DHT22;54079;44.540;18.784;2024-02-26T13:45:01;23.30;65.70
55777;DHT22;54079;44.540;18.784;2024-02-26T13:47:27;23.30;64.80
55777;DHT22;54079;44.540;18.784;2024-02-26T13:49:53;23.50;64.70
55777;DHT22;54079;44.540;18.784;2024-02-26T13:52:19;23.40;62.00
55777;DHT22;54079;44.540;18.784;2024-02-26T13:54:48;23.10;62.30
55777;DHT22;54079;44.540;18.784;2024-02-26T13:57:14;23.00;63.00
55777;DHT22;54079;44.540;18.784;2024-02-26T13:59:40;22.70;63.70
55777;DHT22;54079;44.540;18.784;2024-02-26T14:02:09;22.40;65.50
55777;DHT22;54079;44.540;18.784;2024-02-26T14:04:35;22.00;66.80
55777;DHT22;54079;44.540;18.784;2024-02-26T14:07:02;21.50;67.00
55777;DHT22;54079;44.540;18.784;2024-02-26T14:09:29;21.40;66.90
55777;DHT22;54079;44.540;18.784;2024-02-26T14:11:55;21.30;67.00
55777;DHT22;54079;44.540;18.784;2024-02-26T14:14:21;21.20;67.40
55777;DHT22;54079;44.540;18.784;2024-02-26T14:16:47;21.30;67.50
55777;DHT22;54079;44.540;18.784;2024-02-26T14:19:13;21.20;67.70
55777;DHT22;54079;44.540;18.784;2024-02-26T14:21:39;21.00;68.40
55777;DHT22;54079;44.540;18.784;2024-02-26T14:24:05;20.80;68.50
55777;DHT22;54079;44.540;18.784;2024-02-26T14:26:32;20.90;68.60
55777;DHT22;54079;44.540;18.784;2024-02-26T14:28:57;20.70;69.10
55777;DHT22;54079;44.540;18.784;2024-02-26T14:31:23;20.70;69.40
55777;DHT22;54079;44.540;18.784;2024-02-26T14:33:51;20.60;70.00
55777;DHT22;54079;44.540;18.784;2024-02-26T14:36:21;20.50;70.30
55777;DHT22;54079;44.540;18.784;2024-02-26T14:38:47;20.40;70.30
55777;DHT22;54079;44.540;18.784;2024-02-26T14:41:14;20.20;71.20
55777;DHT22;54079;44.540;18.784;2024-02-26T14:43:40;20.00;71.40
55777;DHT22;54079;44.540;18.784;2024-02-26T14:46:06;19.80;71.90
55777;DHT22;54079;44.540;18.784;2024-02-26T14:48:32;19.90;71.70
55777;DHT22;54079;44.540;18.784;2024-02-26T14:50:59;19.80;72.20
55777;DHT22;54079;44.540;18.784;2024-02-26T14:53:26;19.80;72.30
55777;DHT22;54079;44.540;18.784;2024-02-26T14:55:52;19.70;72.70
55777;DHT22;54079;44.540;18.784;2024-02-26T14:58:18;19.80;72.30
55777;DHT22;54079;44.540;18.784;2024-02-26T15:00:44;19.70;72.30
55777;DHT22;54079;44.540;18.784;2024-02-26T15:03:10;19.70;72.90
55777;DHT22;54079;44.540;18.784;2024-02-26T15:05:36;19.70;73.00
55777;DHT22;54079;44.540;18.784;2024-02-26T15:08:02;19.60;73.20
55777;DHT22;54079;44.540;18.784;2024-02-26T15:10:28;19.50;73.30
55777;DHT22;54079;44.540;18.784;2024-02-26T15:12:55;19.50;73.20
55777;DHT22;54079;44.540;18.784;2024-02-26T15:15:22;19.60;73.50
55777;DHT22;54079;44.540;18.784;2024-02-26T15:17:48;19.30;74.00